Time;durP1;ratioP1;P1;durP2;ratioP2;P2;SDS_P1;SDS_P2;PMS_P1;PMS_P2;Temp;Humidity;BMP_temperature;BMP_pressure;BME280_temperature;BME280_humidity;BME280_pressure;Samples;Min_cycle;Max_cycle;Signal;HPM_P1;HPM_P2
2022/06/13 00:01:56;;;;;;;0.47;0.40;;;13.60;99.90;;;;;;5058727;28;20193;-77
2022/06/13 00:04:27;;;;;;;0.65;0.40;;;13.70;99.90;;;;;;5063712;28;20208;-77
2022/06/13 00:06:59;;;;;;;0.82;0.50;;;13.70;99.90;;;;;;5072347;28;20216;-77
2022/06/13 00:09:30;;;;;;;0.77;0.43;;;13.90;99.90;;;;;;5063034;28;20235;-77
2022/06/13 00:12:00;;;;;;;0.77;0.50;;;13.90;99.90;;;;;;5070267;28;20200;-77
2022/06/13 00:14:33;;;;;;;0.98;0.52;;;14.00;99.90;;;;;;5062474;28;20216;-78
2022/06/13 00:17:04;;;;;;;0.52;0.52;;;14.10;99.90;;;;;;5064654;28;20205;-77
2022/06/13 00:19:35;;;;;;;0.70;0.68;;;14.20;99.90;;;;;;5064868;28;20192;-78
2022/06/13 00:22:05;;;;;;;1.35;0.57;;;14.30;99.90;;;;;;5070200;28;20189;-77
2022/06/13 00:24:36;;;;;;;1.23;0.50;;;14.40;99.90;;;;;;5068669;28;20204;-78
2022/06/13 00:27:08;;;;;;;1.10;0.50;;;14.40;99.90;;;;;;5057768;28;20579;-77
2022/06/13 00:29:41;;;;;;;0.50;0.32;;;14.40;99.90;;;;;;5061217;28;20603;-77
2022/06/13 00:32:12;;;;;;;1.48;0.43;;;14.50;99.90;;;;;;5069407;28;20322;-77
2022/06/13 00:34:43;;;;;;;1.02;0.50;;;14.50;99.90;;;;;;5064760;28;20204;-77
2022/06/13 00:37:13;;;;;;;0.63;0.50;;;14.60;99.90;;;;;;5061696;28;20284;-78
2022/06/13 00:39:44;;;;;;;1.23;0.57;;;14.70;99.90;;;;;;5070466;28;20204;-78
2022/06/13 00:42:26;;;;;;;0.52;0.50;;;14.80;99.90;;;;;;5056139;28;20198;-77
2022/06/13 00:45:18;;;;;;;1.48;0.60;;;14.80;99.90;;;;;;5069855;28;20198;-77
2022/06/13 00:47:50;;;;;;;0.73;0.50;;;14.80;99.90;;;;;;5065600;28;20208;-79
2022/06/13 00:50:26;;;;;;;0.50;0.50;;;14.90;99.90;;;;;;5062135;28;20201;-78
2022/06/13 00:53:01;;;;;;;0.52;0.50;;;14.90;99.90;;;;;;5069416;28;20205;-78
2022/06/13 00:55:35;;;;;;;1.30;0.70;;;14.90;99.90;;;;;;5061318;28;20188;-78
2022/06/13 00:58:06;;;;;;;1.23;0.50;;;14.90;99.90;;;;;;5059307;28;20201;-78
2022/06/13 01:00:39;;;;;;;0.90;0.60;;;15.00;99.90;;;;;;5066639;28;20194;-78
2022/06/13 01:03:10;;;;;;;1.25;0.82;;;15.00;99.90;;;;;;5062217;28;20205;-79
2022/06/13 01:05:44;;;;;;;0.80;0.70;;;15.10;99.90;;;;;;5066759;28;20217;-78
2022/06/13 01:08:16;;;;;;;1.00;0.60;;;15.20;99.90;;;;;;5070912;28;20200;-78
2022/06/13 01:14:02;;;;;;;0.75;0.50;;;15.30;99.90;;;;;;5068955;28;20219;-78
2022/06/13 01:17:04;;;;;;;1.27;0.50;;;15.30;99.90;;;;;;5059635;28;20228;-78
2022/06/13 01:20:08;;;;;;;1.85;0.70;;;15.30;99.90;;;;;;5058596;28;20196;-79
2022/06/13 01:23:08;;;;;;;0.85;0.63;;;15.40;99.90;;;;;;5063414;28;21774;-79
2022/06/13 01:25:58;;;;;;;1.10;0.70;;;15.50;99.90;;;;;;5060606;28;20236;-78
2022/06/13 01:29:10;;;;;;;0.80;0.60;;;15.60;99.90;;;;;;5068589;28;20671;-79
2022/06/13 01:31:47;;;;;;;0.55;0.52;;;15.60;99.90;;;;;;5045915;28;20194;-78
2022/06/13 01:34:27;;;;;;;1.85;0.75;;;15.60;99.90;;;;;;5064284;28;20200;-78
2022/06/13 01:37:21;;;;;;;1.35;0.52;;;15.70;99.90;;;;;;5064873;28;20193;-78
2022/06/13 01:40:10;;;;;;;0.60;0.60;;;15.70;99.90;;;;;;5064792;28;20192;-79
2022/06/13 01:42:50;;;;;;;1.58;0.50;;;15.90;99.90;;;;;;5070817;28;20558;-78
2022/06/13 01:45:32;;;;;;;0.90;0.60;;;16.00;99.90;;;;;;5069074;28;20193;-77
2022/06/13 01:48:20;;;;;;;1.77;0.70;;;16.10;99.90;;;;;;5066413;28;20192;-78
2022/06/13 01:50:56;;;;;;;1.48;0.60;;;16.10;99.90;;;;;;5068493;28;20197;-78
2022/06/13 01:53:34;;;;;;;1.70;0.70;;;16.20;99.90;;;;;;5070887;28;20197;-78
2022/06/13 01:56:10;;;;;;;1.48;0.60;;;16.10;99.90;;;;;;5063418;28;20301;-78
2022/06/13 01:58:46;;;;;;;2.53;0.70;;;16.20;99.90;;;;;;5069073;28;20571;-77
2022/06/13 02:01:24;;;;;;;1.67;0.60;;;16.20;99.90;;;;;;5063369;28;20279;-78
2022/06/13 02:04:06;;;;;;;1.38;0.57;;;16.30;99.90;;;;;;5069735;28;20193;-77
2022/06/13 02:06:40;;;;;;;2.60;0.60;;;16.30;99.90;;;;;;5066685;28;20217;-77
2022/06/13 02:09:17;;;;;;;0.40;0.40;;;16.30;99.90;;;;;;5065598;28;20199;-77
2022/06/13 02:11:50;;;;;;;1.27;0.50;;;16.30;99.90;;;;;;5062271;28;20201;-78
2022/06/13 02:14:25;;;;;;;1.27;0.60;;;16.50;99.90;;;;;;5069639;28;20189;-78
2022/06/13 02:17:00;;;;;;;2.92;0.60;;;16.50;99.90;;;;;;5067613;28;20200;-78
2022/06/13 02:19:36;;;;;;;1.30;0.70;;;16.60;99.90;;;;;;5071994;28;20211;-78
2022/06/13 02:22:13;;;;;;;2.92;0.82;;;16.60;99.90;;;;;;5067683;28;20201;-77
2022/06/13 02:24:51;;;;;;;0.88;0.50;;;16.60;99.90;;;;;;5068910;28;20559;-77
2022/06/13 02:27:25;;;;;;;1.33;0.70;;;16.70;99.90;;;;;;5068139;28;20224;-78
2022/06/13 02:30:01;;;;;;;1.55;0.63;;;16.70;99.90;;;;;;5064675;28;20204;-77
2022/06/13 02:32:39;;;;;;;2.28;0.70;;;16.70;99.90;;;;;;5065413;28;20193;-77
2022/06/13 02:35:19;;;;;;;2.58;0.90;;;16.80;99.90;;;;;;5068545;28;20203;-78
2022/06/13 02:37:53;;;;;;;2.20;0.70;;;16.80;99.90;;;;;;5063868;28;20197;-77
2022/06/13 02:40:27;;;;;;;2.25;0.80;;;16.80;99.90;;;;;;5062661;28;20196;-78
2022/06/13 02:43:00;;;;;;;1.75;0.73;;;16.80;99.90;;;;;;5070812;28;20657;-78
2022/06/13 02:45:36;;;;;;;3.27;0.70;;;16.80;99.90;;;;;;5067107;28;20691;-78
2022/06/13 02:48:22;;;;;;;2.25;0.77;;;16.80;99.90;;;;;;5070331;28;20204;-78
2022/06/13 02:51:06;;;;;;;1.33;0.70;;;16.90;99.90;;;;;;5068879;28;20197;-78
2022/06/13 02:53:42;;;;;;;2.97;0.68;;;16.90;99.90;;;;;;5066949;28;20196;-77
2022/06/13 02:56:21;;;;;;;1.30;0.68;;;16.90;99.90;;;;;;5070097;28;20665;-78
2022/06/13 02:59:03;;;;;;;1.73;0.65;;;16.90;99.90;;;;;;5062143;28;20192;-78
2022/06/13 03:01:41;;;;;;;4.18;0.70;;;16.90;99.90;;;;;;5066096;28;20208;-78
2022/06/13 03:04:16;;;;;;;2.30;0.70;;;16.90;99.90;;;;;;5059295;28;20295;-78
2022/06/13 03:06:57;;;;;;;3.08;0.80;;;17.00;99.90;;;;;;5071409;28;20595;-78
2022/06/13 03:09:34;;;;;;;1.88;0.80;;;16.90;99.90;;;;;;5066060;28;20228;-77
2022/06/13 03:12:09;;;;;;;3.33;0.73;;;16.80;99.90;;;;;;5070389;28;20189;-78
2022/06/13 03:14:49;;;;;;;1.10;0.60;;;16.90;99.90;;;;;;5067009;28;20212;-77
2022/06/13 03:17:36;;;;;;;5.32;0.90;;;16.90;99.90;;;;;;5066576;28;20667;-77
2022/06/13 03:20:12;;;;;;;2.05;0.68;;;16.80;99.90;;;;;;5070990;28;20756;-78
2022/06/13 03:22:50;;;;;;;4.95;0.75;;;16.80;99.90;;;;;;5063379;28;20197;-78
2022/06/13 03:25:30;;;;;;;3.92;0.88;;;16.80;99.90;;;;;;5065193;28;20192;-77
2022/06/13 03:28:08;;;;;;;3.28;0.85;;;16.80;99.90;;;;;;5067190;28;20216;-78
2022/06/13 03:30:54;;;;;;;3.97;0.95;;;16.80;99.90;;;;;;5064151;28;20189;-79
2022/06/13 03:33:46;;;;;;;2.85;0.82;;;16.80;99.90;;;;;;5065011;28;20185;-77
2022/06/13 03:36:21;;;;;;;2.28;1.00;;;16.70;99.90;;;;;;5068592;28;20213;-78
2022/06/13 03:38:59;;;;;;;1.80;0.80;;;16.70;99.90;;;;;;5073851;28;20294;-78
2022/06/13 03:41:35;;;;;;;5.72;0.90;;;16.60;99.90;;;;;;5061340;28;20201;-78
2022/06/13 03:44:11;;;;;;;3.03;1.00;;;16.60;99.90;;;;;;5068346;28;20227;-78
2022/06/13 03:46:47;;;;;;;2.17;0.98;;;16.30;99.90;;;;;;5064627;28;20221;-78
2022/06/13 03:49:28;;;;;;;3.47;1.00;;;16.10;99.90;;;;;;5065897;28;20192;-78
2022/06/13 03:52:00;;;;;;;2.53;1.15;;;15.90;99.90;;;;;;5068304;28;20205;-78
2022/06/13 03:54:39;;;;;;;3.88;0.95;;;15.60;99.90;;;;;;5064238;28;20198;-78
2022/06/13 03:57:18;;;;;;;2.47;1.00;;;15.50;99.90;;;;;;5065311;28;20246;-78
2022/06/13 03:59:56;;;;;;;4.35;0.98;;;15.40;99.90;;;;;;5066485;28;20189;-78
2022/06/13 04:02:32;;;;;;;3.10;1.02;;;15.40;99.90;;;;;;5064821;28;20185;-78
2022/06/13 04:05:02;;;;;;;2.50;0.98;;;15.50;99.90;;;;;;5062779;28;20267;-78
2022/06/13 04:07:38;;;;;;;3.78;1.00;;;15.40;99.90;;;;;;5069753;28;20212;-78
2022/06/13 04:10:15;;;;;;;3.47;0.90;;;15.40;99.90;;;;;;5070219;28;20225;-77
2022/06/13 04:13:00;;;;;;;2.42;0.88;;;15.40;99.90;;;;;;5066520;28;20231;-79
2022/06/13 04:15:46;;;;;;;1.98;0.77;;;15.40;99.90;;;;;;5067567;28;20201;-78
2022/06/13 04:18:26;;;;;;;1.95;0.68;;;15.30;99.90;;;;;;5069626;28;20609;-78
2022/06/13 04:34:56;;;;;;;2.22;0.88;;;15.60;99.90;;;;;;4963059;28;20223;-77
2022/06/13 04:37:27;;;;;;;3.08;0.85;;;15.50;99.90;;;;;;5020112;28;20695;-78
2022/06/13 04:51:07;;;;;;;2.78;1.00;;;15.60;99.90;;;;;;4934607;29;20664;-78
2022/06/13 04:55:00;;;;;;;1.80;0.98;;;15.70;99.90;;;;;;4947618;29;20197;-78
2022/06/13 05:02:24;;;;;;;1.50;0.80;;;15.60;99.90;;;;;;4908253;29;20205;-78
2022/06/13 05:09:32;;;;;;;5.88;1.00;;;15.70;99.90;;;;;;4963698;28;20231;-78
2022/06/13 06:07:12;;;;;;;4.32;1.15;;;15.20;99.90;;;;;;4913079;29;20221;-78
2022/06/13 06:19:56;;;;;;;0.98;0.82;;;15.00;99.90;;;;;;4874737;29;20218;-77
2022/06/13 06:22:27;;;;;;;2.65;1.05;;;14.90;99.90;;;;;;4878204;29;20569;-79
2022/06/13 06:25:00;;;;;;;2.20;1.13;;;14.80;99.90;;;;;;4889279;29;20658;-78
2022/06/13 06:27:31;;;;;;;3.92;1.20;;;14.80;99.90;;;;;;4927537;29;20229;-78
2022/06/13 06:30:02;;;;;;;2.67;1.08;;;14.70;99.90;;;;;;4932902;29;20213;-78
2022/06/13 06:32:34;;;;;;;2.95;1.20;;;14.60;99.90;;;;;;4936191;29;20198;-79
2022/06/13 06:35:06;;;;;;;3.70;1.40;;;14.60;99.90;;;;;;4932043;29;20221;-80
2022/06/13 06:37:39;;;;;;;2.88;1.20;;;14.50;99.90;;;;;;4946924;28;20319;-79
2022/06/13 06:40:12;;;;;;;3.17;1.15;;;14.40;99.90;;;;;;4986686;28;20613;-78
2022/06/13 06:42:43;;;;;;;2.13;1.17;;;14.30;99.90;;;;;;4988776;28;20561;-79
2022/06/13 06:45:14;;;;;;;4.13;1.10;;;14.20;99.90;;;;;;4989601;28;20627;-78
2022/06/13 06:47:47;;;;;;;1.90;1.10;;;14.10;99.90;;;;;;5047026;28;20275;-77
2022/06/13 06:50:20;;;;;;;2.40;1.10;;;14.10;99.90;;;;;;5048783;28;20197;-78
2022/06/13 06:52:51;;;;;;;3.25;1.20;;;14.00;99.90;;;;;;5050849;28;20304;-77
2022/06/13 07:01:05;;;;;;;3.75;1.75;;;13.60;99.90;;;;;;5051332;28;20213;-78
2022/06/13 07:03:38;;;;;;;6.65;1.75;;;13.50;99.90;;;;;;5047437;28;20200;-78
2022/06/13 07:06:17;;;;;;;5.28;1.88;;;13.40;99.90;;;;;;5049889;28;20555;-77
2022/06/13 07:08:47;;;;;;;4.15;1.83;;;13.30;99.90;;;;;;5040176;28;20795;-77
2022/06/13 07:14:10;;;;;;;5.82;2.28;;;13.10;99.90;;;;;;5068194;28;20576;-77
2022/06/13 07:16:40;;;;;;;5.45;1.80;;;13.00;99.90;;;;;;5069512;28;20201;-78
2022/06/13 07:19:13;;;;;;;5.53;2.08;;;12.90;99.90;;;;;;5068872;28;20198;-77
2022/06/13 07:21:44;;;;;;;3.90;2.00;;;12.80;99.90;;;;;;5066141;28;20219;-78
2022/06/13 07:24:14;;;;;;;3.80;1.73;;;12.80;99.90;;;;;;5070894;28;20197;-78
2022/06/13 07:26:48;;;;;;;5.53;2.15;;;12.70;99.90;;;;;;5070820;28;20678;-78
2022/06/13 07:29:19;;;;;;;3.25;2.25;;;12.70;99.90;;;;;;5070318;28;20649;-79
2022/06/13 07:31:55;;;;;;;6.15;2.78;;;12.60;99.90;;;;;;5072184;28;20223;-79
2022/06/13 07:34:30;;;;;;;8.18;5.25;;;12.70;99.90;;;;;;5069192;28;20193;-78
2022/06/13 07:37:02;;;;;;;6.93;3.05;;;12.70;99.90;;;;;;5068376;28;20192;-78
2022/06/13 07:39:33;;;;;;;8.65;4.25;;;12.70;99.90;;;;;;5063576;28;20201;-78
2022/06/13 07:42:05;;;;;;;7.18;4.00;;;12.60;99.90;;;;;;5070490;28;20200;-78
2022/06/13 07:44:44;;;;;;;5.93;3.00;;;12.50;99.90;;;;;;5065710;28;20689;-78
2022/06/13 07:47:21;;;;;;;7.35;3.38;;;12.40;99.90;;;;;;5068458;28;20228;-78
2022/06/13 07:49:55;;;;;;;7.65;3.40;;;12.30;99.90;;;;;;5068173;28;20196;-77
2022/06/13 07:52:26;;;;;;;5.85;3.20;;;12.20;99.90;;;;;;5070601;28;20200;-78
2022/06/13 07:54:56;;;;;;;6.88;3.47;;;12.10;99.90;;;;;;5069072;28;20201;-77
2022/06/13 07:57:27;;;;;;;8.43;3.53;;;12.10;99.90;;;;;;5068189;28;20219;-77
2022/06/13 08:00:21;;;;;;;7.07;3.60;;;12.00;99.90;;;;;;5063759;28;20200;-77
2022/06/13 08:02:53;;;;;;;6.10;3.20;;;12.00;99.90;;;;;;5060798;28;20205;-76
2022/06/13 08:05:26;;;;;;;5.95;3.70;;;11.90;99.90;;;;;;5067817;28;20197;-77
2022/06/13 08:07:56;;;;;;;6.55;3.78;;;11.90;99.90;;;;;;5069928;28;20246;-78
2022/06/13 08:10:27;;;;;;;6.63;3.25;;;11.90;99.90;;;;;;5070964;28;20704;-78
2022/06/13 08:12:59;;;;;;;9.43;3.63;;;11.90;99.90;;;;;;5067289;28;20224;-77
2022/06/13 08:15:30;;;;;;;7.28;3.65;;;11.90;99.90;;;;;;5071541;28;20188;-77
2022/06/13 08:18:00;;;;;;;8.15;3.90;;;11.90;99.90;;;;;;5068143;28;20197;-77
2022/06/13 08:20:33;;;;;;;7.25;3.40;;;11.90;99.90;;;;;;5070465;28;20243;-78
2022/06/13 08:23:05;;;;;;;7.38;3.55;;;11.90;99.90;;;;;;5051109;28;20648;-78
2022/06/13 08:25:37;;;;;;;6.93;3.78;;;11.80;99.90;;;;;;5068130;28;20284;-78
2022/06/13 08:28:08;;;;;;;7.47;3.97;;;11.80;99.90;;;;;;5068576;28;20222;-77
2022/06/13 08:30:41;;;;;;;9.25;4.10;;;11.80;99.90;;;;;;5067922;28;20181;-77
2022/06/13 08:33:12;;;;;;;7.25;3.65;;;11.60;99.90;;;;;;5069250;28;20196;-77
2022/06/13 08:35:46;;;;;;;8.75;4.18;;;11.60;99.90;;;;;;5071300;28;20216;-78
2022/06/13 08:38:17;;;;;;;7.18;3.72;;;11.50;99.90;;;;;;5069122;28;20248;-78
2022/06/13 08:40:55;;;;;;;6.07;4.10;;;11.50;99.90;;;;;;5066870;28;20189;-79
2022/06/13 08:43:38;;;;;;;8.52;4.35;;;11.50;99.90;;;;;;5058784;28;20193;-78
2022/06/13 08:46:16;;;;;;;7.38;4.13;;;11.40;99.90;;;;;;5062708;28;20237;-78
2022/06/13 08:48:47;;;;;;;9.07;4.20;;;11.40;99.90;;;;;;5057279;28;20262;-78
2022/06/13 08:51:34;;;;;;;9.70;4.50;;;11.40;99.90;;;;;;5055388;28;20193;-78
2022/06/13 08:54:10;;;;;;;8.32;4.15;;;11.40;99.90;;;;;;5060332;28;20197;-77
2022/06/13 08:56:41;;;;;;;7.90;4.20;;;11.40;99.90;;;;;;5064695;28;20241;-78
2022/06/13 08:59:25;;;;;;;10.18;4.93;;;11.40;99.90;;;;;;5071669;28;20674;-78
2022/06/13 09:02:01;;;;;;;10.27;4.80;;;11.30;99.90;;;;;;5060085;28;20535;-78
2022/06/13 09:04:40;;;;;;;9.60;4.88;;;11.30;99.90;;;;;;5060821;28;20197;-78
2022/06/13 09:07:18;;;;;;;10.63;4.55;;;11.30;99.90;;;;;;5068200;28;20607;-78
2022/06/13 09:09:57;;;;;;;10.82;4.80;;;11.20;99.90;;;;;;5068395;28;20228;-78
2022/06/13 09:12:38;;;;;;;11.25;5.03;;;11.20;99.90;;;;;;5064833;28;20216;-78
2022/06/13 09:15:11;;;;;;;8.98;4.97;;;11.20;99.90;;;;;;5076763;28;20185;-78
2022/06/13 09:17:50;;;;;;;9.75;5.00;;;11.10;99.90;;;;;;5075473;28;20213;-78
2022/06/13 09:20:25;;;;;;;8.80;4.70;;;11.10;99.90;;;;;;5068255;28;20195;-78
2022/06/13 09:23:11;;;;;;;10.55;4.95;;;11.10;99.90;;;;;;5056795;28;20193;-78
2022/06/13 09:25:56;;;;;;;9.50;5.05;;;11.10;99.90;;;;;;5064916;28;20552;-78
2022/06/13 09:28:32;;;;;;;9.55;5.40;;;11.00;99.90;;;;;;5072791;28;20581;-78
2022/06/13 09:31:09;;;;;;;10.75;5.80;;;11.00;99.90;;;;;;5070006;28;20188;-78
2022/06/13 09:33:45;;;;;;;10.52;5.70;;;11.00;99.90;;;;;;5075773;28;20656;-78
2022/06/13 09:36:19;;;;;;;10.55;6.03;;;11.00;99.90;;;;;;5073748;28;20231;-78
2022/06/13 09:38:58;;;;;;;11.82;6.50;;;10.90;99.90;;;;;;5067911;28;20247;-78
2022/06/13 09:41:46;;;;;;;15.10;6.40;;;11.00;99.90;;;;;;5076042;28;20220;-78
2022/06/13 09:44:27;;;;;;;11.00;6.07;;;10.90;99.90;;;;;;5070860;28;20636;-78
2022/06/13 09:47:07;;;;;;;14.27;6.93;;;10.90;99.90;;;;;;5075499;28;20181;-78
2022/06/13 09:49:47;;;;;;;12.55;6.15;;;10.90;99.90;;;;;;5075750;28;20221;-78
2022/06/13 09:52:26;;;;;;;14.75;6.88;;;10.90;99.90;;;;;;5061370;28;20193;-78
2022/06/13 09:55:08;;;;;;;14.05;6.50;;;10.80;99.90;;;;;;5070794;28;20271;-78
2022/06/13 09:57:50;;;;;;;12.15;7.05;;;10.70;99.90;;;;;;5056118;28;20189;-78
2022/06/13 10:00:26;;;;;;;11.38;6.82;;;10.70;99.90;;;;;;5056254;28;20550;-77
2022/06/13 10:03:03;;;;;;;14.60;6.22;;;10.70;99.90;;;;;;5064210;28;20222;-78
2022/06/13 10:05:44;;;;;;;14.02;6.57;;;10.60;99.90;;;;;;5055793;28;20244;-78
2022/06/13 10:08:40;;;;;;;11.52;6.03;;;10.60;99.90;;;;;;5067195;28;20322;-78
2022/06/13 10:11:20;;;;;;;11.10;6.15;;;10.70;99.90;;;;;;5072086;28;20225;-78
2022/06/13 10:14:06;;;;;;;12.20;6.30;;;10.60;99.90;;;;;;5072291;28;20220;-78
2022/06/13 10:16:47;;;;;;;11.73;5.68;;;10.50;99.90;;;;;;5065604;28;20202;-77
2022/06/13 10:19:28;;;;;;;9.18;5.70;;;10.60;99.90;;;;;;5068965;28;20659;-78
2022/06/13 10:22:08;;;;;;;13.73;5.97;;;10.50;99.90;;;;;;5072400;28;20193;-78
2022/06/13 10:24:55;;;;;;;13.13;6.10;;;10.40;99.90;;;;;;5066800;28;20197;-78
2022/06/13 10:27:44;;;;;;;14.45;6.50;;;10.40;99.90;;;;;;5063266;28;20259;-77
2022/06/13 10:30:26;;;;;;;12.60;6.15;;;10.40;99.90;;;;;;5066581;28;20193;-78
2022/06/13 10:33:29;;;;;;;9.43;5.90;;;10.40;99.90;;;;;;5067492;28;20197;-78
2022/06/13 10:36:11;;;;;;;10.82;6.05;;;10.30;99.90;;;;;;5070118;28;20238;-78
2022/06/13 10:39:05;;;;;;;14.50;6.53;;;10.30;99.90;;;;;;5069042;28;20200;-78
2022/06/13 10:41:38;;;;;;;16.27;6.95;;;10.30;99.90;;;;;;5060683;28;20197;-77
2022/06/13 10:44:16;;;;;;;16.05;8.77;;;10.20;99.90;;;;;;5068136;28;20260;-77
2022/06/13 10:46:48;;;;;;;18.27;10.50;;;10.20;99.90;;;;;;5072624;28;20243;-77
2022/06/13 10:49:25;;;;;;;22.42;10.80;;;10.20;99.90;;;;;;5061007;28;20228;-77
2022/06/13 10:52:00;;;;;;;17.23;9.68;;;10.20;99.90;;;;;;5071702;28;20671;-77
2022/06/13 10:54:41;;;;;;;19.42;10.38;;;10.20;99.90;;;;;;5071627;28;20849;-77
2022/06/13 10:57:14;;;;;;;17.13;10.23;;;10.10;99.90;;;;;;5071307;28;20200;-78
2022/06/13 11:00:07;;;;;;;20.83;10.57;;;10.10;99.90;;;;;;5061047;28;20197;-78
2022/06/13 11:02:37;;;;;;;15.40;10.07;;;10.10;99.90;;;;;;5065739;28;20204;-78
2022/06/13 11:05:11;;;;;;;17.80;10.15;;;10.10;99.90;;;;;;5074315;28;20200;-77
2022/06/13 11:07:49;;;;;;;18.88;10.52;;;10.10;99.90;;;;;;5069434;28;20216;-77
2022/06/13 11:10:33;;;;;;;21.63;9.88;;;10.10;99.90;;;;;;5071264;28;20283;-77
2022/06/13 11:13:15;;;;;;;19.10;10.50;;;10.00;99.90;;;;;;5073643;28;20714;-78
2022/06/13 11:24:40;;;;;;;20.17;10.05;;;10.00;99.90;;;;;;5064136;28;20265;-78
2022/06/13 11:30:53;;;;;;;20.30;10.00;;;9.90;99.90;;;;;;5065714;28;20220;-78
2022/06/13 11:33:32;;;;;;;19.95;9.77;;;9.80;99.90;;;;;;5073032;28;20722;-78
2022/06/13 11:36:21;;;;;;;17.33;9.48;;;9.80;99.90;;;;;;5073046;28;20193;-78
2022/06/13 11:38:58;;;;;;;16.63;9.13;;;9.80;99.90;;;;;;5062889;28;20211;-78
2022/06/13 11:41:36;;;;;;;18.48;9.75;;;9.70;99.90;;;;;;5064528;28;20663;-78
2022/06/13 11:44:10;;;;;;;17.83;9.60;;;9.70;99.90;;;;;;5063968;28;20228;-79
2022/06/13 11:46:47;;;;;;;16.58;9.57;;;9.70;99.90;;;;;;5064421;28;20227;-78
2022/06/13 11:49:40;;;;;;;20.02;9.55;;;9.70;99.90;;;;;;5072679;28;20231;-79
2022/06/13 11:55:22;;;;;;;18.90;9.48;;;9.60;99.90;;;;;;5066201;28;20199;-79
2022/06/13 11:57:56;;;;;;;16.65;10.18;;;9.60;99.90;;;;;;5063420;28;20204;-78
2022/06/13 12:00:39;;;;;;;19.60;10.57;;;9.60;99.90;;;;;;5071176;28;20197;-78
2022/06/13 12:03:22;;;;;;;19.80;10.82;;;9.50;99.90;;;;;;5061453;28;20189;-78
2022/06/13 12:06:16;;;;;;;20.90;10.07;;;9.40;99.90;;;;;;5065471;28;20197;-78
2022/06/13 12:08:53;;;;;;;17.98;10.95;;;9.50;99.90;;;;;;5061869;28;20212;-78
2022/06/13 12:11:27;;;;;;;19.35;10.70;;;9.50;99.90;;;;;;5067856;28;20692;-79
2022/06/13 12:13:59;;;;;;;20.48;11.05;;;9.50;99.90;;;;;;5069951;28;20181;-78
2022/06/13 12:16:37;;;;;;;18.45;10.88;;;9.50;99.90;;;;;;5064763;28;20190;-78
2022/06/13 12:19:25;;;;;;;18.80;10.20;;;9.50;99.90;;;;;;5067435;28;20193;-78
2022/06/13 12:22:02;;;;;;;20.75;11.55;;;9.50;99.90;;;;;;5073433;28;20269;-79
2022/06/13 12:24:48;;;;;;;19.83;10.70;;;9.50;99.90;;;;;;5073271;28;20632;-78
2022/06/13 12:27:28;;;;;;;17.10;10.10;;;9.50;99.90;;;;;;5053417;28;20209;-79
2022/06/13 12:30:11;;;;;;;20.63;11.52;;;9.50;99.90;;;;;;5061238;28;20227;-78
2022/06/13 12:32:46;;;;;;;19.85;10.68;;;9.50;99.90;;;;;;5070508;28;20601;-78
2022/06/13 12:35:33;;;;;;;20.38;11.20;;;9.40;99.90;;;;;;5066043;28;20547;-78
2022/06/13 12:38:16;;;;;;;22.73;10.85;;;9.40;99.90;;;;;;5065152;28;20189;-79
2022/06/13 12:41:00;;;;;;;18.33;10.23;;;9.40;99.90;;;;;;5066018;28;20191;-78
2022/06/13 12:43:46;;;;;;;17.02;10.40;;;9.40;99.90;;;;;;5056127;28;20576;-78
2022/06/13 12:46:33;;;;;;;18.10;10.63;;;9.30;99.90;;;;;;5066533;28;20189;-78
2022/06/13 12:49:24;;;;;;;20.58;10.98;;;9.30;99.90;;;;;;5056244;28;20217;-78
2022/06/13 12:52:02;;;;;;;20.90;12.10;;;9.30;99.90;;;;;;5056579;28;20199;-78
2022/06/13 12:54:55;;;;;;;22.50;11.98;;;9.20;99.90;;;;;;5061548;28;20633;-78
2022/06/13 12:57:48;;;;;;;22.27;12.23;;;9.30;99.90;;;;;;5069661;28;20208;-78
2022/06/13 13:00:23;;;;;;;34.65;19.88;;;9.30;99.90;;;;;;5065968;28;20216;-78
2022/06/13 13:03:30;;;;;;;26.00;12.77;;;9.30;99.90;;;;;;5064216;28;20633;-77
2022/06/13 13:06:09;;;;;;;25.33;13.02;;;9.40;99.90;;;;;;5061776;28;20227;-78
2022/06/13 13:08:55;;;;;;;21.90;12.38;;;9.40;99.90;;;;;;5070281;28;20200;-79
2022/06/13 13:11:44;;;;;;;20.33;11.90;;;9.30;99.90;;;;;;5064556;28;20240;-78
2022/06/13 13:14:25;;;;;;;21.42;12.65;;;9.30;99.90;;;;;;5057691;28;20197;-78
2022/06/13 13:17:03;;;;;;;21.33;11.95;;;9.30;99.90;;;;;;5061460;28;20198;-77
2022/06/13 13:19:46;;;;;;;21.80;12.70;;;9.30;99.90;;;;;;5061037;28;20607;-78
2022/06/13 13:22:22;;;;;;;19.35;11.45;;;9.30;99.90;;;;;;5057480;28;20661;-78
2022/06/13 13:25:08;;;;;;;22.00;11.82;;;9.30;99.90;;;;;;5053131;28;21744;-77
2022/06/13 13:27:48;;;;;;;18.75;11.13;;;9.20;99.90;;;;;;5067565;28;20619;-79
2022/06/13 13:30:23;;;;;;;21.38;10.52;;;9.30;99.90;;;;;;5051800;28;20619;-79
2022/06/13 13:33:23;;;;;;;18.30;9.88;;;9.20;99.90;;;;;;5064033;28;20189;-78
2022/06/13 13:35:58;;;;;;;16.65;9.77;;;9.20;99.90;;;;;;5066566;28;20193;-77
2022/06/13 13:38:33;;;;;;;14.88;9.23;;;9.10;99.90;;;;;;5064386;28;20197;-78
2022/06/13 13:41:09;;;;;;;18.27;9.13;;;9.10;99.90;;;;;;5069916;28;20228;-78
2022/06/13 13:43:45;;;;;;;16.73;9.77;;;9.10;99.90;;;;;;5063214;28;20184;-78
2022/06/13 13:46:25;;;;;;;19.80;9.50;;;9.10;99.90;;;;;;5070380;28;20278;-78
2022/06/13 13:48:58;;;;;;;16.25;9.02;;;9.00;99.90;;;;;;5069774;28;20248;-78
2022/06/13 13:51:33;;;;;;;19.40;9.13;;;9.00;99.90;;;;;;5062030;28;20594;-78
2022/06/13 13:54:11;;;;;;;16.00;9.27;;;9.00;99.90;;;;;;5057890;28;20200;-79
2022/06/13 13:56:46;;;;;;;15.88;9.43;;;9.00;99.90;;;;;;5060999;28;20200;-78
2022/06/13 13:59:21;;;;;;;15.65;8.80;;;8.90;99.90;;;;;;5069034;28;20199;-78
2022/06/13 14:02:01;;;;;;;15.60;9.32;;;8.90;99.90;;;;;;5071788;28;20231;-78
2022/06/13 14:04:57;;;;;;;18.52;9.57;;;8.90;99.90;;;;;;5064890;28;20212;-79
2022/06/13 14:07:52;;;;;;;14.57;9.25;;;8.90;99.90;;;;;;5056610;28;20202;-78
2022/06/13 14:10:25;;;;;;;16.30;9.45;;;8.90;99.90;;;;;;4949009;28;3088245;-78
2022/06/13 14:13:22;;;;;;;20.05;9.85;;;8.90;99.90;;;;;;5073754;28;20626;-78
2022/06/13 14:16:17;;;;;;;17.73;9.70;;;8.80;99.90;;;;;;5068196;28;20197;-78
2022/06/13 14:19:03;;;;;;;18.05;9.73;;;8.70;99.90;;;;;;5074477;28;20193;-79
2022/06/13 14:21:58;;;;;;;15.45;9.13;;;8.70;99.90;;;;;;5068952;28;20200;-78
2022/06/13 14:24:31;;;;;;;20.85;9.68;;;8.70;99.90;;;;;;5065105;28;20200;-78
2022/06/13 14:27:10;;;;;;;17.58;9.38;;;8.70;99.90;;;;;;5067523;28;20193;-78
2022/06/13 14:29:46;;;;;;;18.27;9.60;;;8.70;99.90;;;;;;5067046;28;20303;-78
2022/06/13 14:32:33;;;;;;;17.83;8.90;;;8.60;99.90;;;;;;5069093;28;20193;-78
2022/06/13 14:35:13;;;;;;;17.05;9.52;;;8.70;99.90;;;;;;5066612;28;20221;-78
2022/06/13 14:38:25;;;;;;;15.93;9.63;;;8.50;99.90;;;;;;5067802;28;20192;-77
2022/06/13 14:41:02;;;;;;;17.17;8.90;;;8.60;99.90;;;;;;5012950;28;20195;-78
2022/06/13 14:43:43;;;;;;;17.70;9.63;;;8.50;99.90;;;;;;5069130;28;20644;-79
2022/06/13 14:46:39;;;;;;;16.48;8.90;;;8.50;99.90;;;;;;5068098;28;20224;-78
2022/06/13 14:49:22;;;;;;;17.08;8.68;;;8.50;99.90;;;;;;5067068;28;20196;-79
2022/06/13 14:52:11;;;;;;;17.20;8.63;;;8.60;99.90;;;;;;5070484;28;20656;-78
2022/06/13 14:55:00;;;;;;;17.52;8.23;;;8.50;99.90;;;;;;5065303;28;20198;-79
2022/06/13 14:57:56;;;;;;;14.15;7.88;;;8.50;99.90;;;;;;5051863;28;20280;-78
2022/06/13 15:00:33;;;;;;;16.23;8.30;;;8.50;99.90;;;;;;5066403;28;20637;-78
2022/06/13 15:03:15;;;;;;;14.68;8.07;;;8.40;99.90;;;;;;5071603;28;20224;-79
2022/06/13 15:06:06;;;;;;;14.98;7.78;;;8.40;99.90;;;;;;5063688;28;20189;-78
2022/06/13 15:09:06;;;;;;;12.45;7.88;;;8.40;99.90;;;;;;5065495;28;20224;-78
2022/06/13 15:11:43;;;;;;;11.85;7.28;;;8.40;99.90;;;;;;5065708;28;20222;-78
2022/06/13 15:14:19;;;;;;;17.08;7.72;;;8.40;99.90;;;;;;5072513;28;20287;-79
2022/06/13 15:16:52;;;;;;;13.48;7.95;;;8.30;99.90;;;;;;5072495;28;20185;-78
2022/06/13 15:19:25;;;;;;;13.60;8.10;;;8.30;99.90;;;;;;5067668;28;20625;-79
2022/06/13 15:22:06;;;;;;;13.18;7.50;;;8.30;99.90;;;;;;5069213;28;20596;-79
2022/06/13 15:24:48;;;;;;;13.35;8.00;;;8.20;99.90;;;;;;5068825;28;20251;-79
2022/06/13 15:27:19;;;;;;;13.85;7.75;;;8.20;99.90;;;;;;5072998;28;20182;-78
2022/06/13 15:30:18;;;;;;;18.15;9.10;;;8.10;99.90;;;;;;5067198;28;20247;-79
2022/06/13 15:32:48;;;;;;;16.15;8.60;;;8.10;99.90;;;;;;5070283;28;20193;-79
2022/06/13 15:35:21;;;;;;;15.30;8.43;;;8.10;99.90;;;;;;5069797;28;20238;-78
2022/06/13 15:38:01;;;;;;;14.55;8.45;;;8.10;99.90;;;;;;5070015;28;20188;-78
2022/06/13 15:40:34;;;;;;;16.92;9.40;;;8.00;99.90;;;;;;5065227;28;20188;-78
2022/06/13 15:43:06;;;;;;;14.15;8.65;;;8.00;99.90;;;;;;5070985;28;20208;-78
2022/06/13 15:45:38;;;;;;;14.02;8.73;;;8.00;99.90;;;;;;5066487;28;20192;-78
2022/06/13 15:48:15;;;;;;;16.83;8.82;;;7.90;99.90;;;;;;5071696;28;20258;-78
2022/06/13 15:50:46;;;;;;;15.75;9.25;;;8.00;99.90;;;;;;5072045;28;20719;-78